createdAt,value
2019-05-09T00:01:18.929Z,99200.33
2019-05-09T00:03:48.934Z,99200.08
2019-05-09T00:06:19.177Z,99200.37
2019-05-09T00:08:49.312Z,99199.33
2019-05-09T00:11:19.498Z,99192.87
2019-05-09T00:13:49.482Z,99198.52
2019-05-09T00:16:19.497Z,99198.98
2019-05-09T00:18:49.466Z,99198.98
2019-05-09T00:21:25.087Z,99209.34
2019-05-09T00:23:55.139Z,99207.81
2019-05-09T00:26:25.138Z,99214.02
2019-05-09T00:28:59.095Z,99213.00
2019-05-09T00:31:51.132Z,99209.20
2019-05-09T00:34:33.714Z,99213.21
2019-05-09T00:37:03.389Z,99217.75
2019-05-09T00:39:34.124Z,99220.27
2019-05-09T00:42:04.571Z,99216.74
2019-05-09T00:44:36.557Z,99216.74
2019-05-09T00:47:27.402Z,99220.27
2019-05-09T00:49:57.497Z,99222.54
2019-05-09T00:52:27.502Z,99222.56
2019-05-09T00:54:57.546Z,99209.69
2019-05-09T00:57:33.711Z,99210.33
2019-05-09T01:00:07.504Z,99224.54
2019-05-09T01:02:37.542Z,99221.88
2019-05-09T01:05:07.457Z,99227.23
2019-05-09T01:07:37.468Z,99215.12
2019-05-09T01:10:07.563Z,99218.44
2019-05-09T01:12:37.542Z,99214.36
2019-05-09T01:15:07.716Z,99214.36
2019-05-09T01:17:38.181Z,99213.08
2019-05-09T01:20:08.325Z,99213.08
2019-05-09T01:22:38.308Z,99213.77
2019-05-09T01:25:08.396Z,99218.16
2019-05-09T01:27:38.391Z,99212.14
2019-05-09T01:30:08.416Z,99204.94
2019-05-09T01:32:57.348Z,99199.06
2019-05-09T01:35:27.326Z,99199.06
2019-05-09T01:37:57.336Z,99203.52
2019-05-09T01:40:27.298Z,99209.66
2019-05-09T01:42:57.289Z,99209.66
2019-05-09T01:45:27.257Z,99219.41
2019-05-09T01:47:57.439Z,99209.48
2019-05-09T01:50:27.483Z,99216.61
2019-05-09T01:52:58.246Z,99211.05
2019-05-09T01:55:47.232Z,99211.83
2019-05-09T01:58:17.228Z,99216.05
2019-05-09T02:00:47.306Z,99217.67
2019-05-09T02:03:17.296Z,99226.04
2019-05-09T02:05:47.279Z,99223.56
2019-05-09T02:08:17.278Z,99222.89
2019-05-09T02:10:47.435Z,99225.13
2019-05-09T02:13:17.727Z,99234.55
2019-05-09T02:16:14.164Z,99234.55
2019-05-09T02:19:09.579Z,99222.70
2019-05-09T02:21:39.562Z,99222.70
2019-05-09T02:24:09.561Z,99232.69
2019-05-09T02:26:39.554Z,99230.33
2019-05-09T02:29:09.812Z,99218.97
2019-05-09T02:31:39.803Z,99218.97
2019-05-09T02:34:09.876Z,99223.66
2019-05-09T02:36:39.852Z,99218.31
2019-05-09T02:39:09.846Z,99226.29
2019-05-09T02:41:59.071Z,99223.37
2019-05-09T02:44:11.552Z,99221.23
2019-05-09T02:46:51.892Z,99221.23
2019-05-09T02:49:21.889Z,99215.65
2019-05-09T02:51:51.858Z,99215.65
2019-05-09T02:54:22.432Z,99215.49
2019-05-09T02:56:52.612Z,99226.05
2019-05-09T02:59:40.396Z,99226.05
2019-05-09T03:02:38.787Z,99230.25
2019-05-09T03:05:09.061Z,99233.86
2019-05-09T03:07:51.426Z,99234.56
2019-05-09T03:10:22.491Z,99231.73
2019-05-09T03:12:53.203Z,99229.55
2019-05-09T03:15:23.223Z,99235.28
2019-05-09T03:17:53.185Z,99225.92
2019-05-09T03:20:49.380Z,99231.45
2019-05-09T03:28:24.372Z,99233.47
2019-05-09T03:30:59.229Z,99231.89
2019-05-09T03:33:29.552Z,99248.24
2019-05-09T03:35:59.403Z,99257.77
2019-05-09T03:38:29.383Z,99251.27
2019-05-09T03:40:59.497Z,99258.89
2019-05-09T03:43:29.553Z,99253.44
2019-05-09T03:46:07.791Z,99257.53
2019-05-09T03:48:42.549Z,99261.09
2019-05-09T03:51:12.562Z,99255.31
2019-05-09T03:53:42.553Z,99254.02
2019-05-09T03:56:15.041Z,99252.55
2019-05-09T03:58:45.010Z,99253.89
2019-05-09T04:01:17.405Z,99256.88
2019-05-09T04:03:48.153Z,99252.46
2019-05-09T04:06:18.610Z,99248.03
2019-05-09T04:08:48.669Z,99247.56
2019-05-09T04:11:18.678Z,99245.27
2019-05-09T04:13:54.445Z,99242.78
2019-05-09T04:16:24.476Z,99248.19
2019-05-09T04:18:54.471Z,99252.03
2019-05-09T04:21:24.473Z,99256.90
2019-05-09T04:23:54.740Z,99266.64
2019-05-09T04:27:02.391Z,99266.75
2019-05-09T04:29:32.411Z,99261.90
2019-05-09T04:32:02.438Z,99267.59
2019-05-09T04:34:32.393Z,99268.79
2019-05-09T04:37:02.399Z,99266.31
2019-05-09T04:39:32.384Z,99279.34
2019-05-09T04:42:05.469Z,99285.13
2019-05-09T04:44:42.581Z,99288.28
2019-05-09T04:47:12.601Z,99288.58
2019-05-09T04:49:45.090Z,99296.92
2019-05-09T04:52:14.313Z,99303.23
2019-05-09T04:54:44.302Z,99306.25
2019-05-09T04:57:14.311Z,99304.45
2019-05-09T04:59:44.350Z,99297.12
2019-05-09T05:02:38.051Z,99299.17
2019-05-09T05:05:08.558Z,99301.97
2019-05-09T05:07:38.640Z,99306.04
2019-05-09T05:10:09.270Z,99302.45
2019-05-09T05:12:39.354Z,99301.73
2019-05-09T05:15:10.724Z,99301.59
2019-05-09T05:17:40.802Z,99306.64
2019-05-09T05:20:15.691Z,99308.00
2019-05-09T05:22:54.003Z,99312.09
2019-05-09T05:25:24.065Z,99311.71
2019-05-09T05:27:54.070Z,99311.20
2019-05-09T05:30:24.066Z,99315.56
2019-05-09T05:32:58.532Z,99312.19
2019-05-09T05:35:50.881Z,99312.59
2019-05-09T05:38:20.892Z,99317.73
2019-05-09T05:40:50.911Z,99319.14
2019-05-09T05:43:20.937Z,99307.77
2019-05-09T05:45:58.483Z,99317.83
2019-05-09T05:48:30.144Z,99323.13
2019-05-09T05:51:00.165Z,99332.10
2019-05-09T05:53:30.166Z,99329.34
2019-05-09T05:56:00.193Z,99329.44
2019-05-09T05:58:30.234Z,99333.72
2019-05-09T06:01:02.398Z,99339.00
2019-05-09T06:03:31.962Z,99339.79
2019-05-09T06:06:01.964Z,99336.38
2019-05-09T06:08:31.958Z,99336.38
2019-05-09T06:11:02.001Z,99337.87
2019-05-09T06:13:32.016Z,99341.44
2019-05-09T06:16:02.004Z,99342.35
2019-05-09T06:18:32.027Z,99342.35
2019-05-09T06:21:02.043Z,99345.50
2019-05-09T06:23:32.059Z,99350.51
2019-05-09T06:26:02.136Z,99352.45
2019-05-09T06:28:32.192Z,99350.59
2019-05-09T06:31:02.297Z,99358.12
2019-05-09T06:33:32.332Z,99363.05
2019-05-09T06:36:02.339Z,99360.41
2019-05-09T06:38:32.352Z,99369.93
2019-05-09T06:41:02.365Z,99369.93
2019-05-09T06:43:34.617Z,99373.63
2019-05-09T06:46:27.756Z,99367.06
2019-05-09T06:49:20.044Z,99376.56
2019-05-09T06:51:30.078Z,99376.49
2019-05-09T06:54:00.120Z,99383.88
2019-05-09T06:56:30.112Z,99380.58
2019-05-09T06:59:00.140Z,99389.66
2019-05-09T07:01:57.481Z,99391.11
2019-05-09T07:04:31.654Z,99392.20
2019-05-09T07:07:07.996Z,99400.11
2019-05-09T07:09:44.934Z,99400.11
2019-05-09T07:12:14.917Z,99406.08
2019-05-09T07:14:45.005Z,99403.75
2019-05-09T07:17:14.988Z,99393.61
2019-05-09T07:19:45.014Z,99393.61
2019-05-09T07:22:39.191Z,99406.06
2019-05-09T07:25:27.861Z,99404.25
2019-05-09T07:27:58.703Z,99401.02
2019-05-09T07:30:59.737Z,99395.30
2019-05-09T07:33:38.323Z,99405.14
2019-05-09T07:36:08.648Z,99395.52
2019-05-09T07:38:38.718Z,99395.52
2019-05-09T07:41:09.159Z,99393.87
2019-05-09T07:43:39.156Z,99395.33
2019-05-09T07:46:17.719Z,99392.52
2019-05-09T07:49:48.215Z,99392.52
2019-05-09T07:52:18.729Z,99393.66
2019-05-09T07:54:48.834Z,99387.95
2019-05-09T07:57:18.871Z,99387.03
2019-05-09T07:59:48.863Z,99394.89
2019-05-09T08:02:18.873Z,99395.58
2019-05-09T08:04:49.150Z,99403.03
2019-05-09T08:07:19.087Z,99397.22
2019-05-09T08:09:49.077Z,99408.20
2019-05-09T08:12:19.125Z,99401.13
2019-05-09T08:15:06.821Z,99384.95
2019-05-09T08:17:20.850Z,99404.23
2019-05-09T08:19:50.837Z,99408.72
2019-05-09T08:22:25.647Z,99405.59
2019-05-09T08:24:52.588Z,99413.87
2019-05-09T08:27:22.776Z,99417.13
2019-05-09T08:29:52.763Z,99408.69
2019-05-09T08:32:22.777Z,99424.42
2019-05-09T08:34:52.735Z,99425.11
2019-05-09T08:37:22.749Z,99422.83
2019-05-09T08:39:52.729Z,99426.89
2019-05-09T08:42:22.757Z,99427.16
2019-05-09T08:44:52.791Z,99434.20
2019-05-09T08:47:22.811Z,99429.16
2019-05-09T08:50:14.555Z,99437.03
2019-05-09T08:52:44.577Z,99430.02
2019-05-09T08:55:14.579Z,99434.41
2019-05-09T08:57:44.615Z,99434.34
2019-05-09T09:00:14.986Z,99443.36
2019-05-09T09:02:44.969Z,99438.92
2019-05-09T09:05:14.984Z,99440.92
2019-05-09T09:07:45.008Z,99442.16
2019-05-09T09:10:15.093Z,99440.54
2019-05-09T09:12:47.530Z,99444.64
2019-05-09T09:15:18.002Z,99450.92
2019-05-09T09:17:49.056Z,99442.31
2019-05-09T09:20:19.272Z,99441.94
2019-05-09T09:22:49.315Z,99444.02
2019-05-09T09:25:19.298Z,99442.61
2019-05-09T09:27:51.170Z,99436.53
2019-05-09T09:30:24.998Z,99441.73
2019-05-09T09:32:53.212Z,99443.34
2019-05-09T09:35:23.201Z,99443.73
2019-05-09T09:37:53.328Z,99440.70
2019-05-09T09:40:23.322Z,99444.23
2019-05-09T09:42:53.304Z,99446.13
2019-05-09T09:45:23.321Z,99448.70
2019-05-09T09:47:53.371Z,99444.41
2019-05-09T09:50:23.345Z,99439.66
2019-05-09T09:52:53.381Z,99429.48
2019-05-09T09:55:23.364Z,99436.76
2019-05-09T09:57:53.374Z,99438.20
2019-05-09T10:01:03.526Z,99444.56
2019-05-09T10:03:35.060Z,99443.47
2019-05-09T10:06:05.024Z,99446.34
2019-05-09T10:08:35.032Z,99447.45
2019-05-09T10:11:07.866Z,99449.80
2019-05-09T10:13:37.497Z,99443.47
2019-05-09T10:16:32.540Z,99444.00
2019-05-09T10:19:29.122Z,99445.58
2019-05-09T10:22:00.492Z,99444.48
2019-05-09T10:24:30.503Z,99439.42
2019-05-09T10:27:08.850Z,99447.20
2019-05-09T10:29:39.170Z,99445.91
2019-05-09T10:32:12.394Z,99445.37
2019-05-09T10:34:42.430Z,99445.39
2019-05-09T10:37:12.631Z,99450.01
2019-05-09T10:39:42.606Z,99453.36
2019-05-09T10:42:43.661Z,99453.47
2019-05-09T10:45:40.726Z,99446.70
2019-05-09T10:48:09.417Z,99446.61
2019-05-09T10:50:44.557Z,99441.76
2019-05-09T10:53:11.144Z,99445.87
2019-05-09T10:55:41.161Z,99440.66
2019-05-09T10:58:11.131Z,99440.27
2019-05-09T11:00:41.641Z,99436.13
2019-05-09T11:03:11.623Z,99436.00
2019-05-09T11:05:41.646Z,99434.23
2019-05-09T11:08:11.646Z,99433.63
2019-05-09T11:10:42.972Z,99434.69
2019-05-09T11:13:12.938Z,99429.02
2019-05-09T11:15:42.945Z,99431.38
2019-05-09T11:18:12.894Z,99435.52
2019-05-09T11:20:42.922Z,99434.86
2019-05-09T11:23:12.892Z,99434.20
2019-05-09T11:25:42.913Z,99432.49
2019-05-09T11:28:15.163Z,99439.40
2019-05-09T11:30:44.579Z,99428.33
2019-05-09T11:33:14.544Z,99427.59
2019-05-09T11:35:44.568Z,99436.15
2019-05-09T11:38:14.586Z,99427.05
2019-05-09T11:40:44.623Z,99429.86
2019-05-09T11:47:42.907Z,99425.40
2019-05-09T11:50:08.836Z,99421.92
2019-05-09T11:52:38.533Z,99433.83
2019-05-09T11:55:27.501Z,99426.56
2019-05-09T11:57:40.229Z,99430.32
2019-05-09T12:00:11.141Z,99428.95
2019-05-09T12:02:41.128Z,99432.19
2019-05-09T12:05:11.110Z,99443.12
2019-05-09T12:07:41.198Z,99433.21
2019-05-09T12:10:11.185Z,99439.52
2019-05-09T12:12:41.173Z,99434.88
2019-05-09T12:15:11.167Z,99435.66
2019-05-09T12:17:56.496Z,99436.67
2019-05-09T12:20:13.663Z,99432.63
2019-05-09T12:22:43.891Z,99435.24
2019-05-09T12:25:14.074Z,99432.14
2019-05-09T12:27:44.038Z,99434.39
2019-05-09T12:30:14.403Z,99435.45
2019-05-09T12:32:44.392Z,99426.70
2019-05-09T12:35:14.469Z,99425.92
2019-05-09T12:37:44.468Z,99425.50
2019-05-09T12:40:14.458Z,99428.96
2019-05-09T12:42:44.467Z,99435.77
2019-05-09T12:45:14.854Z,99429.45
2019-05-09T12:47:44.841Z,99436.72
2019-05-09T12:50:14.836Z,99432.28
2019-05-09T12:52:44.850Z,99437.04
2019-05-09T12:55:14.828Z,99432.85
2019-05-09T12:57:44.902Z,99436.43
2019-05-09T13:00:18.448Z,99433.19
2019-05-09T13:02:47.753Z,99429.22
2019-05-09T13:05:18.276Z,99425.34
2019-05-09T13:07:48.342Z,99435.67
2019-05-09T13:10:19.431Z,99431.59
2019-05-09T13:12:49.712Z,99425.52
2019-05-09T13:15:21.480Z,99418.43
2019-05-09T13:17:51.532Z,99421.70
2019-05-09T13:20:21.514Z,99418.53
2019-05-09T13:22:51.511Z,99429.98
2019-05-09T13:25:21.487Z,99427.68
2019-05-09T13:27:52.927Z,99426.42
2019-05-09T13:30:23.224Z,99425.52
2019-05-09T13:32:53.242Z,99430.71
2019-05-09T13:35:23.212Z,99428.82
2019-05-09T13:37:53.192Z,99426.27
2019-05-09T13:40:23.157Z,99433.63
2019-05-09T13:42:53.146Z,99430.02
2019-05-09T13:45:23.141Z,99439.67
2019-05-09T13:47:53.131Z,99440.28
2019-05-09T13:50:23.162Z,99440.24
2019-05-09T13:52:53.160Z,99449.90
2019-05-09T13:55:23.154Z,99446.92
2019-05-09T13:57:53.159Z,99452.33
2019-05-09T14:00:23.177Z,99458.34
2019-05-09T14:02:53.181Z,99455.06
2019-05-09T14:05:23.193Z,99470.72
2019-05-09T14:07:55.095Z,99466.87
2019-05-09T14:10:24.876Z,99471.11
2019-05-09T14:13:08.911Z,99473.20
2019-05-09T14:15:27.508Z,99475.78
2019-05-09T14:17:58.261Z,99478.38
2019-05-09T14:20:28.464Z,99479.52
2019-05-09T14:22:58.481Z,99469.76
2019-05-09T14:25:29.165Z,99478.59
2019-05-09T14:27:59.261Z,99467.66
2019-05-09T14:30:29.231Z,99472.82
2019-05-09T14:33:00.250Z,99461.61
2019-05-09T14:35:30.570Z,99461.60
2019-05-09T14:38:00.640Z,99462.92
2019-05-09T14:40:30.626Z,99462.83
2019-05-09T14:43:00.625Z,99460.52
2019-05-09T14:45:30.642Z,99458.05
2019-05-09T14:48:00.644Z,99457.98
2019-05-09T14:50:30.618Z,99450.54
2019-05-09T14:53:00.639Z,99452.05
2019-05-09T14:55:30.686Z,99453.88
2019-05-09T14:58:00.691Z,99454.82
2019-05-09T15:00:30.835Z,99455.13
2019-05-09T15:03:00.848Z,99451.13
2019-05-09T15:05:30.943Z,99444.30
2019-05-09T15:08:00.992Z,99442.03
2019-05-09T15:10:31.019Z,99450.72
2019-05-09T15:13:01.089Z,99453.16
2019-05-09T15:15:32.702Z,99451.53
2019-05-09T15:18:02.835Z,99457.03
2019-05-09T15:20:32.834Z,99455.88
2019-05-09T15:23:02.838Z,99455.98
2019-05-09T15:25:32.853Z,99453.30
2019-05-09T15:28:02.818Z,99457.30
2019-05-09T15:30:32.816Z,99458.95
2019-05-09T15:33:02.800Z,99462.13
2019-05-09T15:35:32.813Z,99460.81
2019-05-09T15:38:02.879Z,99465.27
2019-05-09T15:40:32.974Z,99461.74
2019-05-09T15:43:02.936Z,99460.18
2019-05-09T15:45:40.819Z,99457.77
2019-05-09T15:48:09.080Z,99463.70
2019-05-09T15:50:39.081Z,99461.60
2019-05-09T15:53:09.078Z,99458.63
2019-05-09T15:55:39.092Z,99467.58
2019-05-09T15:58:09.097Z,99463.70
2019-05-09T16:00:39.232Z,99469.34
2019-05-09T16:03:09.219Z,99476.45
2019-05-09T16:05:39.222Z,99478.61
2019-05-09T16:08:11.572Z,99478.93
2019-05-09T16:10:40.949Z,99482.33
2019-05-09T16:13:10.925Z,99473.46
2019-05-09T16:15:40.928Z,99474.42
2019-05-09T16:18:10.908Z,99474.73
2019-05-09T16:20:41.440Z,99477.77
2019-05-09T16:23:11.486Z,99477.84
2019-05-09T16:25:41.519Z,99476.05
2019-05-09T16:28:11.524Z,99480.09
2019-05-09T16:30:41.598Z,99477.00
2019-05-09T16:33:11.590Z,99478.33
2019-05-09T16:35:41.602Z,99481.04
2019-05-09T16:38:11.617Z,99479.04
2019-05-09T16:40:41.620Z,99478.19
2019-05-09T16:43:11.587Z,99475.09
2019-05-09T16:45:41.635Z,99485.99
2019-05-09T16:48:11.700Z,99482.50
2019-05-09T16:50:57.755Z,99485.17
2019-05-09T16:53:14.021Z,99493.36
2019-05-09T16:55:44.034Z,99490.56
2019-05-09T16:58:14.060Z,99489.63
2019-05-09T17:00:49.526Z,99487.89
2019-05-09T17:03:19.498Z,99503.56
2019-05-09T17:05:49.564Z,99506.19
2019-05-09T17:08:19.570Z,99510.63
2019-05-09T17:10:49.628Z,99507.61
2019-05-09T17:13:19.597Z,99496.50
2019-05-09T17:15:49.621Z,99502.23
2019-05-09T17:18:19.620Z,99509.20
2019-05-09T17:21:21.559Z,99508.23
2019-05-09T17:23:49.380Z,99521.53
2019-05-09T17:26:19.406Z,99526.72
2019-05-09T17:28:49.403Z,99520.05
2019-05-09T17:31:19.399Z,99510.48
2019-05-09T17:33:49.415Z,99506.00
2019-05-09T17:36:19.392Z,99507.27
2019-05-09T17:38:49.417Z,99506.19
2019-05-09T17:41:20.075Z,99512.55
2019-05-09T17:43:50.052Z,99505.59
2019-05-09T17:46:20.059Z,99503.59
2019-05-09T17:48:50.105Z,99504.64
2019-05-09T17:51:32.654Z,99502.86
2019-05-09T17:53:52.354Z,99506.98
2019-05-09T17:56:22.462Z,99510.17
2019-05-09T17:58:52.470Z,99508.59
2019-05-09T18:01:22.472Z,99512.17
2019-05-09T18:03:52.523Z,99513.94
2019-05-09T18:06:22.513Z,99510.88
2019-05-09T18:08:52.517Z,99515.95
2019-05-09T18:11:22.545Z,99518.55
2019-05-09T18:13:52.579Z,99522.91
2019-05-09T18:16:22.583Z,99527.73
2019-05-09T18:18:54.510Z,99528.16
2019-05-09T18:21:24.491Z,99529.46
2019-05-09T18:23:54.511Z,99536.87
2019-05-09T18:26:24.501Z,99545.36
2019-05-09T18:28:54.595Z,99545.48
2019-05-09T18:31:28.718Z,99550.38
2019-05-09T18:34:02.546Z,99553.61
2019-05-09T18:36:32.549Z,99553.42
2019-05-09T18:39:02.659Z,99555.86
2019-05-09T18:41:32.664Z,99560.74
2019-05-09T18:44:02.717Z,99556.55
2019-05-09T18:46:32.761Z,99556.31
2019-05-09T18:49:02.843Z,99564.86
2019-05-09T18:51:32.876Z,99563.97
2019-05-09T18:54:04.077Z,99571.86
2019-05-09T18:56:34.129Z,99570.38
2019-05-09T18:59:04.226Z,99570.38
2019-05-09T19:01:34.655Z,99572.97
2019-05-09T19:04:04.578Z,99577.88
2019-05-09T19:06:34.604Z,99575.05
2019-05-09T19:09:05.631Z,99575.63
2019-05-09T19:11:35.643Z,99577.19
2019-05-09T19:14:06.815Z,99580.84
2019-05-09T19:17:02.204Z,99581.01
2019-05-09T19:22:34.388Z,99592.66
2019-05-09T19:25:06.941Z,99590.48
2019-05-09T19:27:37.045Z,99591.42
2019-05-09T19:30:08.595Z,99598.98
2019-05-09T19:32:38.597Z,99603.73
2019-05-09T19:35:10.314Z,99605.95
2019-05-09T19:37:40.324Z,99601.01
2019-05-09T19:40:13.594Z,99601.59
2019-05-09T19:42:43.614Z,99604.11
2019-05-09T19:45:25.181Z,99605.80
2019-05-09T19:47:55.299Z,99611.81
2019-05-09T19:50:26.403Z,99607.88
2019-05-09T19:52:56.394Z,99612.23
2019-05-09T19:55:26.570Z,99623.15
2019-05-09T19:57:56.573Z,99620.02
2019-05-09T20:00:26.695Z,99624.78
2019-05-09T20:02:56.675Z,99622.77
2019-05-09T20:05:26.738Z,99617.97
2019-05-09T20:07:56.769Z,99627.44
2019-05-09T20:11:04.272Z,99623.67
2019-05-09T20:13:52.003Z,99621.66
2019-05-09T20:16:22.066Z,99627.48
2019-05-09T20:18:52.052Z,99628.84
2019-05-09T20:21:22.074Z,99624.45
2019-05-09T20:23:52.090Z,99632.08
2019-05-09T20:26:22.367Z,99631.59
2019-05-09T20:28:52.366Z,99640.74
2019-05-09T20:31:22.418Z,99636.36
2019-05-09T20:33:52.387Z,99638.83
2019-05-09T20:36:22.405Z,99637.23
2019-05-09T20:38:52.598Z,99643.30
2019-05-09T20:41:22.816Z,99639.33
2019-05-09T20:43:53.025Z,99643.05
2019-05-09T20:46:23.234Z,99648.91
2019-05-09T20:48:53.432Z,99648.50
2019-05-09T20:51:23.646Z,99651.50
2019-05-09T20:53:53.804Z,99651.37
2019-05-09T20:56:24.097Z,99654.62
2019-05-09T20:58:54.273Z,99660.72
2019-05-09T21:01:24.465Z,99660.31
2019-05-09T21:04:00.265Z,99663.10
2019-05-09T21:06:26.569Z,99661.22
2019-05-09T21:08:56.803Z,99661.70
2019-05-09T21:11:27.085Z,99663.75
2019-05-09T21:13:57.297Z,99673.87
2019-05-09T21:16:27.506Z,99670.02
2019-05-09T21:18:57.665Z,99674.69
2019-05-09T21:21:27.830Z,99680.50
2019-05-09T21:23:58.078Z,99678.48
2019-05-09T21:26:28.278Z,99681.66
2019-05-09T21:28:58.452Z,99682.29
2019-05-09T21:31:29.106Z,99680.34
2019-05-09T21:33:59.345Z,99681.86
2019-05-09T21:36:29.404Z,99677.91
2019-05-09T21:38:59.418Z,99677.98
2019-05-09T21:41:29.369Z,99682.52
2019-05-09T21:43:59.340Z,99679.69
2019-05-09T21:46:29.372Z,99684.74
2019-05-09T21:48:59.378Z,99690.78
2019-05-09T21:51:29.345Z,99695.92
2019-05-09T21:53:59.338Z,99688.80
2019-05-09T21:56:29.312Z,99690.23
2019-05-09T21:58:59.311Z,99689.13
2019-05-09T22:01:29.270Z,99697.16
2019-05-09T22:03:59.282Z,99697.70
2019-05-09T22:06:30.947Z,99705.56
2019-05-09T22:09:01.534Z,99706.23
2019-05-09T22:11:31.592Z,99705.91
2019-05-09T22:14:02.383Z,99704.09
2019-05-09T22:16:32.363Z,99705.38
2019-05-09T22:19:02.680Z,99704.86
2019-05-09T22:21:32.685Z,99713.03
2019-05-09T22:24:02.666Z,99702.56
2019-05-09T22:26:32.829Z,99704.70
2019-05-09T22:29:02.898Z,99708.31
2019-05-09T22:31:32.943Z,99706.61
2019-05-09T22:34:02.923Z,99715.92
2019-05-09T22:36:32.907Z,99707.78
2019-05-09T22:39:04.452Z,99710.11
2019-05-09T22:41:34.424Z,99716.08
2019-05-09T22:44:04.423Z,99720.38
2019-05-09T22:46:34.806Z,99717.24
2019-05-09T22:49:04.996Z,99722.45
2019-05-09T22:51:34.937Z,99726.35
2019-05-09T22:54:12.623Z,99728.30
2019-05-09T22:56:36.604Z,99726.33
2019-05-09T22:59:06.575Z,99728.50
2019-05-09T23:01:36.560Z,99723.89
2019-05-09T23:04:06.544Z,99731.81
2019-05-09T23:06:36.515Z,99725.28
2019-05-09T23:09:07.478Z,99729.31
2019-05-09T23:11:37.443Z,99723.53
2019-05-09T23:14:07.432Z,99724.91
2019-05-09T23:16:39.442Z,99723.56
2019-05-09T23:19:09.533Z,99728.94
2019-05-09T23:21:39.488Z,99730.59
2019-05-09T23:24:11.241Z,99720.67
2019-05-09T23:26:41.196Z,99722.80
2019-05-09T23:29:11.175Z,99719.16
2019-05-09T23:31:48.983Z,99719.09
2019-05-09T23:34:18.992Z,99717.21
2019-05-09T23:36:48.977Z,99720.67
2019-05-09T23:39:22.398Z,99716.05
2019-05-09T23:41:52.372Z,99716.03
2019-05-09T23:44:22.369Z,99719.24
2019-05-09T23:46:52.360Z,99717.86
2019-05-09T23:49:22.352Z,99713.90
2019-05-09T23:51:52.320Z,99710.33
2019-05-09T23:54:48.193Z,99706.18
2019-05-09T23:57:29.444Z,99714.69
